sensor_id;sensor_type;location;lat;lon;timestamp;pressure;altitude;pressure_sealevel;temperature;humidity
34235;BME280;20500;49.856;20.290;2023-01-28T00:00:48;99314.54;;;-1.94;77.93
34235;BME280;20500;49.856;20.290;2023-01-28T00:03:54;99310.50;;;-1.92;77.94
34235;BME280;20500;49.856;20.290;2023-01-28T00:07:01;99312.84;;;-1.92;77.93
34235;BME280;20500;49.856;20.290;2023-01-28T00:10:06;99311.99;;;-1.91;77.88
34235;BME280;20500;49.856;20.290;2023-01-28T00:13:13;99311.52;;;-1.89;77.89
34235;BME280;20500;49.856;20.290;2023-01-28T00:16:20;99313.13;;;-1.89;77.92
34235;BME280;20500;49.856;20.290;2023-01-28T00:19:27;99312.13;;;-1.87;78.04
34235;BME280;20500;49.856;20.290;2023-01-28T00:22:34;99312.66;;;-1.85;77.91
34235;BME280;20500;49.856;20.290;2023-01-28T00:25:40;99314.60;;;-1.81;78.05
34235;BME280;20500;49.856;20.290;2023-01-28T00:28:47;99315.59;;;-1.80;78.14
34235;BME280;20500;49.856;20.290;2023-01-28T00:31:53;99316.63;;;-1.77;78.20
34235;BME280;20500;49.856;20.290;2023-01-28T00:35:00;99317.02;;;-1.77;78.01
34235;BME280;20500;49.856;20.290;2023-01-28T00:38:06;99317.21;;;-1.78;78.07
34235;BME280;20500;49.856;20.290;2023-01-28T00:41:14;99316.48;;;-1.78;78.07
34235;BME280;20500;49.856;20.290;2023-01-28T00:44:21;99317.66;;;-1.79;78.03
34235;BME280;20500;49.856;20.290;2023-01-28T00:47:27;99318.30;;;-1.78;77.96
34235;BME280;20500;49.856;20.290;2023-01-28T00:50:32;99317.94;;;-1.78;78.09
34235;BME280;20500;49.856;20.290;2023-01-28T00:53:38;99320.33;;;-1.77;78.24
34235;BME280;20500;49.856;20.290;2023-01-28T00:56:45;99323.02;;;-1.77;78.15
34235;BME280;20500;49.856;20.290;2023-01-28T00:59:51;99324.56;;;-1.78;78.26
34235;BME280;20500;49.856;20.290;2023-01-28T01:02:58;99324.41;;;-1.79;78.14
34235;BME280;20500;49.856;20.290;2023-01-28T01:06:05;99327.66;;;-1.80;78.18
34235;BME280;20500;49.856;20.290;2023-01-28T01:09:13;99325.30;;;-1.79;78.20
34235;BME280;20500;49.856;20.290;2023-01-28T01:12:19;99323.19;;;-1.77;78.34
34235;BME280;20500;49.856;20.290;2023-01-28T01:15:24;99325.23;;;-1.76;78.20
34235;BME280;20500;49.856;20.290;2023-01-28T01:18:30;99327.87;;;-1.77;78.19
34235;BME280;20500;49.856;20.290;2023-01-28T01:21:34;99330.69;;;-1.80;78.28
34235;BME280;20500;49.856;20.290;2023-01-28T01:24:41;99328.14;;;-1.82;78.32
34235;BME280;20500;49.856;20.290;2023-01-28T01:27:48;99325.28;;;-1.81;78.28
34235;BME280;20500;49.856;20.290;2023-01-28T01:31:01;99327.45;;;-1.82;78.24
34235;BME280;20500;49.856;20.290;2023-01-28T01:34:08;99327.90;;;-1.81;78.39
34235;BME280;20500;49.856;20.290;2023-01-28T01:37:14;99327.23;;;-1.78;78.35
34235;BME280;20500;49.856;20.290;2023-01-28T01:40:21;99325.64;;;-1.76;78.41
34235;BME280;20500;49.856;20.290;2023-01-28T01:43:50;99330.48;;;-1.74;78.43
34235;BME280;20500;49.856;20.290;2023-01-28T01:46:56;99330.44;;;-1.76;78.26
34235;BME280;20500;49.856;20.290;2023-01-28T01:50:10;99327.11;;;-1.79;78.30
34235;BME280;20500;49.856;20.290;2023-01-28T01:53:22;99325.17;;;-1.83;78.22
34235;BME280;20500;49.856;20.290;2023-01-28T01:56:34;99329.48;;;-1.83;78.42
34235;BME280;20500;49.856;20.290;2023-01-28T01:59:44;99336.38;;;-1.82;78.51
34235;BME280;20500;49.856;20.290;2023-01-28T02:02:51;99338.41;;;-1.84;78.33
34235;BME280;20500;49.856;20.290;2023-01-28T02:05:58;99338.37;;;-1.86;78.47
34235;BME280;20500;49.856;20.290;2023-01-28T02:09:19;99339.65;;;-1.86;78.37
34235;BME280;20500;49.856;20.290;2023-01-28T02:12:29;99340.95;;;-1.87;78.30
34235;BME280;20500;49.856;20.290;2023-01-28T02:15:37;99341.78;;;-1.89;78.35
34235;BME280;20500;49.856;20.290;2023-01-28T02:18:44;99340.94;;;-1.90;78.38
34235;BME280;20500;49.856;20.290;2023-01-28T02:22:04;99341.75;;;-1.92;78.49
34235;BME280;20500;49.856;20.290;2023-01-28T02:28:56;99345.80;;;-1.91;78.60
34235;BME280;20500;49.856;20.290;2023-01-28T02:32:12;99343.13;;;-1.91;78.57
34235;BME280;20500;49.856;20.290;2023-01-28T02:35:26;99346.48;;;-1.90;78.50
34235;BME280;20500;49.856;20.290;2023-01-28T02:38:38;99349.23;;;-1.91;78.64
34235;BME280;20500;49.856;20.290;2023-01-28T02:41:51;99351.23;;;-1.92;78.58
34235;BME280;20500;49.856;20.290;2023-01-28T02:45:00;99349.73;;;-1.94;78.53
34235;BME280;20500;49.856;20.290;2023-01-28T02:48:06;99351.20;;;-1.94;78.59
34235;BME280;20500;49.856;20.290;2023-01-28T02:51:20;99351.52;;;-1.97;78.61
34235;BME280;20500;49.856;20.290;2023-01-28T02:54:39;99353.09;;;-1.96;78.68
34235;BME280;20500;49.856;20.290;2023-01-28T02:57:56;99351.56;;;-1.95;78.65
34235;BME280;20500;49.856;20.290;2023-01-28T03:01:17;99348.98;;;-1.96;78.62
34235;BME280;20500;49.856;20.290;2023-01-28T03:04:31;99347.55;;;-1.96;78.70
34235;BME280;20500;49.856;20.290;2023-01-28T03:07:40;99345.49;;;-1.98;78.73
34235;BME280;20500;49.856;20.290;2023-01-28T03:10:46;99348.20;;;-1.98;78.67
34235;BME280;20500;49.856;20.290;2023-01-28T03:14:10;99352.13;;;-1.98;78.67
34235;BME280;20500;49.856;20.290;2023-01-28T03:17:40;99350.50;;;-1.98;78.76
34235;BME280;20500;49.856;20.290;2023-01-28T03:21:07;99349.63;;;-1.98;78.85
34235;BME280;20500;49.856;20.290;2023-01-28T03:24:39;99350.82;;;-2.00;78.76
34235;BME280;20500;49.856;20.290;2023-01-28T03:28:09;99349.10;;;-1.98;78.82
34235;BME280;20500;49.856;20.290;2023-01-28T03:31:37;99342.80;;;-1.97;78.74
34235;BME280;20500;49.856;20.290;2023-01-28T03:35:01;99341.88;;;-1.97;78.88
34235;BME280;20500;49.856;20.290;2023-01-28T03:38:25;99344.87;;;-1.96;78.83
34235;BME280;20500;49.856;20.290;2023-01-28T03:41:59;99345.36;;;-1.95;78.74
34235;BME280;20500;49.856;20.290;2023-01-28T03:45:08;99345.05;;;-1.93;78.82
34235;BME280;20500;49.856;20.290;2023-01-28T03:48:22;99344.90;;;-1.91;78.86
34235;BME280;20500;49.856;20.290;2023-01-28T03:51:29;99340.93;;;-1.89;78.87
34235;BME280;20500;49.856;20.290;2023-01-28T03:54:35;99342.78;;;-1.88;78.99
34235;BME280;20500;49.856;20.290;2023-01-28T03:57:42;99348.08;;;-1.90;78.90
34235;BME280;20500;49.856;20.290;2023-01-28T04:00:48;99352.81;;;-1.86;79.05
34235;BME280;20500;49.856;20.290;2023-01-28T04:03:55;99350.77;;;-1.85;79.00
34235;BME280;20500;49.856;20.290;2023-01-28T04:07:00;99349.61;;;-1.86;78.83
34235;BME280;20500;49.856;20.290;2023-01-28T04:10:08;99354.10;;;-1.90;78.88
34235;BME280;20500;49.856;20.290;2023-01-28T04:13:15;99354.66;;;-1.93;78.91
34235;BME280;20500;49.856;20.290;2023-01-28T04:16:22;99355.46;;;-1.94;78.87
34235;BME280;20500;49.856;20.290;2023-01-28T04:19:28;99358.32;;;-1.94;78.98
34235;BME280;20500;49.856;20.290;2023-01-28T04:22:41;99360.07;;;-1.94;78.93
34235;BME280;20500;49.856;20.290;2023-01-28T04:25:50;99361.60;;;-1.93;78.99
34235;BME280;20500;49.856;20.290;2023-01-28T04:28:56;99360.58;;;-1.94;79.04
34235;BME280;20500;49.856;20.290;2023-01-28T04:32:03;99361.32;;;-1.94;79.00
34235;BME280;20500;49.856;20.290;2023-01-28T04:35:10;99365.73;;;-1.94;78.92
34235;BME280;20500;49.856;20.290;2023-01-28T04:38:17;99369.58;;;-1.96;78.83
34235;BME280;20500;49.856;20.290;2023-01-28T04:41:22;99375.32;;;-1.97;78.90
34235;BME280;20500;49.856;20.290;2023-01-28T04:44:28;99378.48;;;-1.99;78.91
34235;BME280;20500;49.856;20.290;2023-01-28T04:47:35;99377.49;;;-2.00;78.95
34235;BME280;20500;49.856;20.290;2023-01-28T04:50:42;99377.27;;;-2.00;78.98
34235;BME280;20500;49.856;20.290;2023-01-28T04:53:49;99381.34;;;-2.02;78.85
34235;BME280;20500;49.856;20.290;2023-01-28T04:56:55;99384.46;;;-2.04;79.05
34235;BME280;20500;49.856;20.290;2023-01-28T05:00:00;99386.64;;;-2.04;78.97
34235;BME280;20500;49.856;20.290;2023-01-28T05:03:06;99388.73;;;-2.06;79.00
34235;BME280;20500;49.856;20.290;2023-01-28T05:06:12;99389.16;;;-2.07;78.86
34235;BME280;20500;49.856;20.290;2023-01-28T05:09:19;99388.27;;;-2.10;78.81
34235;BME280;20500;49.856;20.290;2023-01-28T05:12:23;99384.52;;;-2.10;78.83
34235;BME280;20500;49.856;20.290;2023-01-28T05:15:30;99387.45;;;-2.08;78.99
34235;BME280;20500;49.856;20.290;2023-01-28T05:18:34;99387.77;;;-2.08;78.98
34235;BME280;20500;49.856;20.290;2023-01-28T05:21:40;99388.81;;;-2.08;79.01
34235;BME280;20500;49.856;20.290;2023-01-28T05:24:47;99388.91;;;-2.06;79.01
34235;BME280;20500;49.856;20.290;2023-01-28T05:27:53;99389.63;;;-2.04;78.89
34235;BME280;20500;49.856;20.290;2023-01-28T05:31:05;99395.88;;;-2.04;78.92
34235;BME280;20500;49.856;20.290;2023-01-28T05:34:11;99400.85;;;-2.04;78.87
34235;BME280;20500;49.856;20.290;2023-01-28T05:37:18;99402.32;;;-2.05;78.81
34235;BME280;20500;49.856;20.290;2023-01-28T05:40:24;99408.55;;;-2.05;78.91
34235;BME280;20500;49.856;20.290;2023-01-28T05:43:31;99409.85;;;-2.08;78.88
34235;BME280;20500;49.856;20.290;2023-01-28T05:46:37;99411.69;;;-2.12;78.82
34235;BME280;20500;49.856;20.290;2023-01-28T05:49:49;99408.93;;;-2.14;78.93
34235;BME280;20500;49.856;20.290;2023-01-28T05:52:53;99409.47;;;-2.14;78.91
34235;BME280;20500;49.856;20.290;2023-01-28T05:55:59;99407.95;;;-2.15;78.84
34235;BME280;20500;49.856;20.290;2023-01-28T05:59:06;99414.39;;;-2.16;78.90
34235;BME280;20500;49.856;20.290;2023-01-28T06:02:14;99417.77;;;-2.16;78.93
34235;BME280;20500;49.856;20.290;2023-01-28T06:05:18;99419.17;;;-2.15;79.02
34235;BME280;20500;49.856;20.290;2023-01-28T06:08:25;99418.39;;;-2.17;78.94
34235;BME280;20500;49.856;20.290;2023-01-28T06:11:31;99418.71;;;-2.16;79.01
34235;BME280;20500;49.856;20.290;2023-01-28T06:14:36;99422.48;;;-2.14;78.97
34235;BME280;20500;49.856;20.290;2023-01-28T06:17:42;99426.48;;;-2.16;78.86
34235;BME280;20500;49.856;20.290;2023-01-28T06:20:50;99430.91;;;-2.15;78.92
34235;BME280;20500;49.856;20.290;2023-01-28T06:23:57;99434.11;;;-2.12;78.96
34235;BME280;20500;49.856;20.290;2023-01-28T06:27:03;99439.74;;;-2.12;78.83
34235;BME280;20500;49.856;20.290;2023-01-28T06:30:11;99446.27;;;-2.11;78.95
34235;BME280;20500;49.856;20.290;2023-01-28T06:33:19;99445.60;;;-2.09;78.82
34235;BME280;20500;49.856;20.290;2023-01-28T06:36:26;99449.77;;;-2.07;78.96
34235;BME280;20500;49.856;20.290;2023-01-28T06:39:32;99456.27;;;-2.06;79.04
34235;BME280;20500;49.856;20.290;2023-01-28T06:42:39;99460.88;;;-2.02;79.07
34235;BME280;20500;49.856;20.290;2023-01-28T06:45:45;99464.37;;;-1.98;79.02
34235;BME280;20500;49.856;20.290;2023-01-28T06:48:52;99466.72;;;-1.96;78.94
34235;BME280;20500;49.856;20.290;2023-01-28T06:51:56;99470.52;;;-1.94;78.83
34235;BME280;20500;49.856;20.290;2023-01-28T06:55:03;99474.36;;;-1.93;78.91
34235;BME280;20500;49.856;20.290;2023-01-28T06:58:10;99476.92;;;-1.91;78.76
34235;BME280;20500;49.856;20.290;2023-01-28T07:01:14;99476.59;;;-1.94;78.77
34235;BME280;20500;49.856;20.290;2023-01-28T07:04:21;99477.59;;;-1.97;78.70
34235;BME280;20500;49.856;20.290;2023-01-28T07:07:25;99483.55;;;-1.95;78.91
34235;BME280;20500;49.856;20.290;2023-01-28T07:10:32;99489.12;;;-1.96;78.81
34235;BME280;20500;49.856;20.290;2023-01-28T07:13:38;99493.42;;;-1.97;78.87
34235;BME280;20500;49.856;20.290;2023-01-28T07:16:43;99499.90;;;-1.95;78.73
34235;BME280;20500;49.856;20.290;2023-01-28T07:19:49;99499.32;;;-1.97;78.72
34235;BME280;20500;49.856;20.290;2023-01-28T07:22:54;99501.63;;;-1.97;78.80
34235;BME280;20500;49.856;20.290;2023-01-28T07:26:03;99501.98;;;-1.97;78.76
34235;BME280;20500;49.856;20.290;2023-01-28T07:29:10;99498.88;;;-1.99;78.58
34235;BME280;20500;49.856;20.290;2023-01-28T07:32:17;99504.39;;;-2.01;78.50
34235;BME280;20500;49.856;20.290;2023-01-28T07:35:24;99508.19;;;-2.03;78.59
34235;BME280;20500;49.856;20.290;2023-01-28T07:38:30;99512.33;;;-2.01;78.56
34235;BME280;20500;49.856;20.290;2023-01-28T07:41:37;99512.73;;;-1.98;78.68
34235;BME280;20500;49.856;20.290;2023-01-28T07:44:43;99515.15;;;-1.97;78.57
34235;BME280;20500;49.856;20.290;2023-01-28T07:47:53;99516.55;;;-1.94;78.65
34235;BME280;20500;49.856;20.290;2023-01-28T07:51:00;99518.84;;;-1.90;78.61
34235;BME280;20500;49.856;20.290;2023-01-28T07:54:07;99517.96;;;-1.90;78.53
34235;BME280;20500;49.856;20.290;2023-01-28T07:57:13;99519.84;;;-1.89;78.49
34235;BME280;20500;49.856;20.290;2023-01-28T08:00:29;99518.64;;;-1.87;78.55
34235;BME280;20500;49.856;20.290;2023-01-28T08:03:35;99517.04;;;-1.84;78.46
34235;BME280;20500;49.856;20.290;2023-01-28T08:06:40;99521.77;;;-1.83;78.32
34235;BME280;20500;49.856;20.290;2023-01-28T08:09:46;99526.29;;;-1.78;78.43
34235;BME280;20500;49.856;20.290;2023-01-28T08:12:54;99527.45;;;-1.77;78.31
34235;BME280;20500;49.856;20.290;2023-01-28T08:16:00;99526.80;;;-1.78;78.31
34235;BME280;20500;49.856;20.290;2023-01-28T08:19:07;99528.55;;;-1.77;78.18
34235;BME280;20500;49.856;20.290;2023-01-28T08:22:14;99526.67;;;-1.76;78.30
34235;BME280;20500;49.856;20.290;2023-01-28T08:25:20;99527.57;;;-1.79;78.21
34235;BME280;20500;49.856;20.290;2023-01-28T08:28:27;99528.33;;;-1.80;78.16
34235;BME280;20500;49.856;20.290;2023-01-28T08:31:34;99530.30;;;-1.80;78.26
34235;BME280;20500;49.856;20.290;2023-01-28T08:34:40;99536.84;;;-1.82;78.22
34235;BME280;20500;49.856;20.290;2023-01-28T08:37:45;99537.36;;;-1.82;78.25
34235;BME280;20500;49.856;20.290;2023-01-28T08:40:51;99537.86;;;-1.81;78.18
34235;BME280;20500;49.856;20.290;2023-01-28T08:43:59;99534.13;;;-1.81;78.05
34235;BME280;20500;49.856;20.290;2023-01-28T08:47:06;99532.36;;;-1.79;78.17
34235;BME280;20500;49.856;20.290;2023-01-28T08:50:12;99533.28;;;-1.70;78.11
34235;BME280;20500;49.856;20.290;2023-01-28T08:53:20;99532.95;;;-1.65;78.21
34235;BME280;20500;49.856;20.290;2023-01-28T08:56:26;99536.25;;;-1.61;78.19
34235;BME280;20500;49.856;20.290;2023-01-28T08:59:34;99539.34;;;-1.56;78.05
34235;BME280;20500;49.856;20.290;2023-01-28T09:02:44;99538.38;;;-1.52;78.16
34235;BME280;20500;49.856;20.290;2023-01-28T09:05:49;99546.74;;;-1.49;78.07
34235;BME280;20500;49.856;20.290;2023-01-28T09:08:57;99545.33;;;-1.52;78.02
34235;BME280;20500;49.856;20.290;2023-01-28T09:12:03;99550.52;;;-1.53;78.05
34235;BME280;20500;49.856;20.290;2023-01-28T09:15:13;99550.55;;;-1.53;77.88
34235;BME280;20500;49.856;20.290;2023-01-28T09:18:20;99549.53;;;-1.51;78.04
34235;BME280;20500;49.856;20.290;2023-01-28T09:21:26;99552.02;;;-1.45;78.15
34235;BME280;20500;49.856;20.290;2023-01-28T09:24:30;99556.14;;;-1.40;77.95
34235;BME280;20500;49.856;20.290;2023-01-28T09:27:37;99552.60;;;-1.34;78.11
34235;BME280;20500;49.856;20.290;2023-01-28T09:30:43;99553.83;;;-1.25;78.00
34235;BME280;20500;49.856;20.290;2023-01-28T09:33:48;99552.77;;;-1.14;78.02
34235;BME280;20500;49.856;20.290;2023-01-28T09:37:00;99554.41;;;-1.04;77.91
34235;BME280;20500;49.856;20.290;2023-01-28T09:40:11;99557.00;;;-0.96;77.96
34235;BME280;20500;49.856;20.290;2023-01-28T09:43:46;99553.27;;;-0.91;77.83
34235;BME280;20500;49.856;20.290;2023-01-28T09:46:54;99553.98;;;-0.91;77.78
34235;BME280;20500;49.856;20.290;2023-01-28T09:50:08;99554.77;;;-0.95;77.69
34235;BME280;20500;49.856;20.290;2023-01-28T09:53:21;99552.24;;;-1.01;77.64
34235;BME280;20500;49.856;20.290;2023-01-28T09:56:30;99543.40;;;-0.96;77.59
34235;BME280;20500;49.856;20.290;2023-01-28T09:59:39;99541.40;;;-0.92;77.63
34235;BME280;20500;49.856;20.290;2023-01-28T10:03:02;99545.72;;;-0.95;77.54
34235;BME280;20500;49.856;20.290;2023-01-28T10:06:27;99547.52;;;-0.99;77.67
34235;BME280;20500;49.856;20.290;2023-01-28T10:09:47;99547.63;;;-1.06;77.41
34235;BME280;20500;49.856;20.290;2023-01-28T10:13:02;99544.48;;;-1.13;77.38
34235;BME280;20500;49.856;20.290;2023-01-28T10:16:18;99542.42;;;-1.14;77.47
34235;BME280;20500;49.856;20.290;2023-01-28T10:19:29;99543.02;;;-1.15;77.32
34235;BME280;20500;49.856;20.290;2023-01-28T10:22:40;99544.41;;;-1.17;77.31
34235;BME280;20500;49.856;20.290;2023-01-28T10:25:50;99544.63;;;-1.18;77.17
34235;BME280;20500;49.856;20.290;2023-01-28T10:28:56;99546.45;;;-1.19;77.37
34235;BME280;20500;49.856;20.290;2023-01-28T10:32:11;99546.73;;;-1.20;77.14
34235;BME280;20500;49.856;20.290;2023-01-28T10:35:21;99546.46;;;-1.19;77.20
34235;BME280;20500;49.856;20.290;2023-01-28T10:38:28;99545.23;;;-1.19;77.22
34235;BME280;20500;49.856;20.290;2023-01-28T10:41:36;99542.00;;;-1.19;77.19
34235;BME280;20500;49.856;20.290;2023-01-28T10:45:02;99543.97;;;-1.19;76.98
34235;BME280;20500;49.856;20.290;2023-01-28T10:48:17;99542.12;;;-1.17;76.97
34235;BME280;20500;49.856;20.290;2023-01-28T10:51:34;99537.27;;;-1.14;77.06
34235;BME280;20500;49.856;20.290;2023-01-28T10:54:40;99532.30;;;-1.06;77.01
34235;BME280;20500;49.856;20.290;2023-01-28T10:57:45;99529.05;;;-1.03;76.85
34235;BME280;20500;49.856;20.290;2023-01-28T11:00:55;99528.83;;;-1.02;76.92
34235;BME280;20500;49.856;20.290;2023-01-28T11:04:02;99526.08;;;-0.95;76.99
34235;BME280;20500;49.856;20.290;2023-01-28T11:07:18;99526.61;;;-0.84;77.08
34235;BME280;20500;49.856;20.290;2023-01-28T11:10:30;99528.45;;;-0.74;76.95
34235;BME280;20500;49.856;20.290;2023-01-28T11:13:49;99526.50;;;-0.66;76.99
34235;BME280;20500;49.856;20.290;2023-01-28T11:16:58;99520.29;;;-0.63;76.73
34235;BME280;20500;49.856;20.290;2023-01-28T11:20:17;99519.89;;;-0.63;76.65
34235;BME280;20500;49.856;20.290;2023-01-28T11:23:27;99518.58;;;-0.64;76.63
34235;BME280;20500;49.856;20.290;2023-01-28T11:26:37;99516.21;;;-0.66;76.79
34235;BME280;20500;49.856;20.290;2023-01-28T11:29:45;99515.10;;;-0.68;76.67
34235;BME280;20500;49.856;20.290;2023-01-28T11:32:57;99514.90;;;-0.68;76.51
34235;BME280;20500;49.856;20.290;2023-01-28T11:36:14;99514.64;;;-0.72;76.35
34235;BME280;20500;49.856;20.290;2023-01-28T11:39:23;99516.76;;;-0.75;76.53
34235;BME280;20500;49.856;20.290;2023-01-28T11:42:32;99516.27;;;-0.76;76.50
34235;BME280;20500;49.856;20.290;2023-01-28T11:45:45;99515.39;;;-0.81;76.43
34235;BME280;20500;49.856;20.290;2023-01-28T11:49:00;99513.59;;;-0.83;76.37
34235;BME280;20500;49.856;20.290;2023-01-28T11:52:19;99510.40;;;-0.87;76.43
34235;BME280;20500;49.856;20.290;2023-01-28T11:55:40;99512.48;;;-0.83;76.55
34235;BME280;20500;49.856;20.290;2023-01-28T11:58:58;99510.00;;;-0.75;76.66
34235;BME280;20500;49.856;20.290;2023-01-28T12:02:22;99510.55;;;-0.70;76.49
34235;BME280;20500;49.856;20.290;2023-01-28T12:05:52;99513.73;;;-0.72;76.19
34235;BME280;20500;49.856;20.290;2023-01-28T12:09:10;99514.96;;;-0.78;76.13
34235;BME280;20500;49.856;20.290;2023-01-28T12:12:36;99511.50;;;-0.84;76.09
34235;BME280;20500;49.856;20.290;2023-01-28T12:16:03;99512.21;;;-0.85;76.19
34235;BME280;20500;49.856;20.290;2023-01-28T12:19:39;99512.48;;;-0.80;76.27
34235;BME280;20500;49.856;20.290;2023-01-28T12:22:53;99509.04;;;-0.77;76.33
34235;BME280;20500;49.856;20.290;2023-01-28T12:26:10;99511.89;;;-0.71;76.36
34235;BME280;20500;49.856;20.290;2023-01-28T12:29:25;99512.78;;;-0.66;76.19
34235;BME280;20500;49.856;20.290;2023-01-28T12:32:50;99513.02;;;-0.64;76.11
34235;BME280;20500;49.856;20.290;2023-01-28T12:36:04;99515.73;;;-0.62;76.06
34235;BME280;20500;49.856;20.290;2023-01-28T12:39:22;99515.48;;;-0.61;76.10
34235;BME280;20500;49.856;20.290;2023-01-28T12:42:36;99512.94;;;-0.60;75.99
34235;BME280;20500;49.856;20.290;2023-01-28T12:45:46;99515.94;;;-0.62;75.72
34235;BME280;20500;49.856;20.290;2023-01-28T12:48:58;99519.41;;;-0.67;75.74
34235;BME280;20500;49.856;20.290;2023-01-28T12:52:11;99514.09;;;-0.70;75.74
34235;BME280;20500;49.856;20.290;2023-01-28T12:55:26;99512.66;;;-0.69;75.92
34235;BME280;20500;49.856;20.290;2023-01-28T12:58:42;99516.33;;;-0.66;75.91
34235;BME280;20500;49.856;20.290;2023-01-28T13:01:52;99517.50;;;-0.61;75.88
34235;BME280;20500;49.856;20.290;2023-01-28T13:05:05;99519.96;;;-0.61;75.86
34235;BME280;20500;49.856;20.290;2023-01-28T13:08:18;99520.70;;;-0.64;75.90
34235;BME280;20500;49.856;20.290;2023-01-28T13:11:32;99522.76;;;-0.71;75.72
34235;BME280;20500;49.856;20.290;2023-01-28T13:14:40;99523.13;;;-0.77;75.79
34235;BME280;20500;49.856;20.290;2023-01-28T13:17:57;99522.48;;;-0.78;75.78
34235;BME280;20500;49.856;20.290;2023-01-28T13:21:04;99526.02;;;-0.81;75.69
34235;BME280;20500;49.856;20.290;2023-01-28T13:24:33;99534.13;;;-0.79;75.72
34235;BME280;20500;49.856;20.290;2023-01-28T13:27:39;99535.81;;;-0.83;75.53
34235;BME280;20500;49.856;20.290;2023-01-28T13:30:49;99539.90;;;-0.88;75.56
34235;BME280;20500;49.856;20.290;2023-01-28T13:34:04;99544.02;;;-0.89;75.68
34235;BME280;20500;49.856;20.290;2023-01-28T13:37:21;99546.10;;;-0.90;75.62
34235;BME280;20500;49.856;20.290;2023-01-28T13:40:30;99540.84;;;-0.92;75.74
34235;BME280;20500;49.856;20.290;2023-01-28T13:43:37;99542.21;;;-0.88;75.83
34235;BME280;20500;49.856;20.290;2023-01-28T13:46:45;99540.62;;;-0.89;75.65
34235;BME280;20500;49.856;20.290;2023-01-28T13:49:50;99545.42;;;-0.91;75.62
34235;BME280;20500;49.856;20.290;2023-01-28T13:53:03;99550.45;;;-0.89;75.56
34235;BME280;20500;49.856;20.290;2023-01-28T13:56:19;99547.66;;;-0.87;75.72
34235;BME280;20500;49.856;20.290;2023-01-28T13:59:41;99553.26;;;-0.83;75.79
34235;BME280;20500;49.856;20.290;2023-01-28T14:06:56;99563.48;;;-0.78;75.78
34235;BME280;20500;49.856;20.290;2023-01-28T14:10:29;99568.30;;;-0.87;75.47
34235;BME280;20500;49.856;20.290;2023-01-28T14:17:13;99577.34;;;-0.86;75.60
34235;BME280;20500;49.856;20.290;2023-01-28T14:20:28;99575.64;;;-0.87;75.42
34235;BME280;20500;49.856;20.290;2023-01-28T14:23:37;99574.95;;;-0.87;75.65
34235;BME280;20500;49.856;20.290;2023-01-28T14:26:54;99576.70;;;-0.84;75.64
34235;BME280;20500;49.856;20.290;2023-01-28T14:30:14;99574.64;;;-0.80;75.80
34235;BME280;20500;49.856;20.290;2023-01-28T14:33:23;99574.41;;;-0.68;75.93
34235;BME280;20500;49.856;20.290;2023-01-28T14:36:30;99574.49;;;-0.58;75.82
34235;BME280;20500;49.856;20.290;2023-01-28T14:39:43;99572.77;;;-0.57;75.59
34235;BME280;20500;49.856;20.290;2023-01-28T14:42:52;99574.97;;;-0.57;75.49
34235;BME280;20500;49.856;20.290;2023-01-28T14:46:10;99579.45;;;-0.55;75.66
34235;BME280;20500;49.856;20.290;2023-01-28T14:49:26;99581.11;;;-0.56;75.46
34235;BME280;20500;49.856;20.290;2023-01-28T14:52:53;99581.91;;;-0.57;75.49
34235;BME280;20500;49.856;20.290;2023-01-28T14:56:07;99584.45;;;-0.58;75.41
34235;BME280;20500;49.856;20.290;2023-01-28T14:59:19;99583.30;;;-0.60;75.49
34235;BME280;20500;49.856;20.290;2023-01-28T15:02:28;99582.80;;;-0.60;75.50
34235;BME280;20500;49.856;20.290;2023-01-28T15:05:34;99586.04;;;-0.60;75.41
34235;BME280;20500;49.856;20.290;2023-01-28T15:08:40;99587.70;;;-0.61;75.34
34235;BME280;20500;49.856;20.290;2023-01-28T15:11:48;99592.33;;;-0.61;75.47
34235;BME280;20500;49.856;20.290;2023-01-28T15:14:55;99594.52;;;-0.59;75.47
34235;BME280;20500;49.856;20.290;2023-01-28T15:18:03;99595.94;;;-0.56;75.42
34235;BME280;20500;49.856;20.290;2023-01-28T15:21:10;99597.42;;;-0.55;75.46
34235;BME280;20500;49.856;20.290;2023-01-28T15:24:16;99602.48;;;-0.53;75.43
34235;BME280;20500;49.856;20.290;2023-01-28T15:27:23;99606.73;;;-0.50;75.37
34235;BME280;20500;49.856;20.290;2023-01-28T15:30:31;99609.29;;;-0.47;75.17
34235;BME280;20500;49.856;20.290;2023-01-28T15:33:37;99607.85;;;-0.45;75.40
34235;BME280;20500;49.856;20.290;2023-01-28T15:36:43;99606.63;;;-0.42;75.36
34235;BME280;20500;49.856;20.290;2023-01-28T15:40:00;99607.91;;;-0.40;75.44
34235;BME280;20500;49.856;20.290;2023-01-28T15:43:17;99605.08;;;-0.40;75.34
34235;BME280;20500;49.856;20.290;2023-01-28T15:46:24;99604.85;;;-0.40;75.32
34235;BME280;20500;49.856;20.290;2023-01-28T15:49:34;99610.13;;;-0.41;75.31
34235;BME280;20500;49.856;20.290;2023-01-28T15:52:42;99611.52;;;-0.43;75.33
34235;BME280;20500;49.856;20.290;2023-01-28T15:55:49;99616.30;;;-0.46;75.30
34235;BME280;20500;49.856;20.290;2023-01-28T15:59:07;99624.95;;;-0.50;75.33
34235;BME280;20500;49.856;20.290;2023-01-28T16:02:21;99628.70;;;-0.56;75.17
34235;BME280;20500;49.856;20.290;2023-01-28T16:05:30;99633.10;;;-0.57;75.38
34235;BME280;20500;49.856;20.290;2023-01-28T16:08:39;99636.10;;;-0.57;75.42
34235;BME280;20500;49.856;20.290;2023-01-28T16:11:47;99633.83;;;-0.58;75.43
34235;BME280;20500;49.856;20.290;2023-01-28T16:14:53;99627.30;;;-0.56;75.50
34235;BME280;20500;49.856;20.290;2023-01-28T16:17:59;99627.54;;;-0.54;75.48
34235;BME280;20500;49.856;20.290;2023-01-28T16:21:08;99625.57;;;-0.54;75.37
34235;BME280;20500;49.856;20.290;2023-01-28T16:24:23;99625.29;;;-0.55;75.35
34235;BME280;20500;49.856;20.290;2023-01-28T16:27:31;99630.98;;;-0.55;75.44
34235;BME280;20500;49.856;20.290;2023-01-28T16:30:38;99631.49;;;-0.58;75.30
34235;BME280;20500;49.856;20.290;2023-01-28T16:33:44;99628.16;;;-0.61;75.41
34235;BME280;20500;49.856;20.290;2023-01-28T16:36:49;99635.34;;;-0.65;75.38
34235;BME280;20500;49.856;20.290;2023-01-28T16:39:55;99630.55;;;-0.71;75.28
34235;BME280;20500;49.856;20.290;2023-01-28T16:43:07;99633.44;;;-0.74;75.26
34235;BME280;20500;49.856;20.290;2023-01-28T16:46:16;99637.41;;;-0.78;75.26